Terminal Aerodrome Forecast
Issued by NWS

Home | Current Version | Previous Version | Text Only | Print | Product List | Glossary On
Versions: 1 2 3 4 5 6 7 8 9 10 11 12 13 14 15
000
FTUS43 KPAH 251700
TAFCGI
TAF
KCGI 251720Z 2518/2618 28004KT P6SM SKC
     FM260600 00000KT 3SM BR SCT025
      TEMPO 2609/2613 1/2SM FG VV002
     FM261400 13004KT P6SM SCT030=

USA.gov is the U.S. government's official web portal to all federal, state and local government web resources and services.